createdAt,value
2022-09-28T05:32:05.777Z,55.00
2022-09-28T05:33:06.704Z,49.00
2022-09-28T05:34:06.683Z,43.00
2022-09-28T05:35:06.675Z,46.00
2022-09-28T05:36:06.660Z,63.00
2022-09-28T05:37:06.672Z,95.00
2022-09-28T05:38:06.642Z,123.00
2022-09-28T05:39:06.641Z,124.00
2022-09-28T05:40:06.621Z,109.00
2022-09-28T05:41:07.096Z,93.00
2022-09-28T05:42:06.649Z,97.00
2022-09-28T05:43:06.657Z,127.00
2022-09-28T05:44:06.579Z,190.00
2022-09-28T05:45:06.614Z,218.00
2022-09-28T05:46:06.691Z,188.00
2022-09-28T05:47:06.571Z,152.00
2022-09-28T05:48:06.540Z,126.00
2022-09-28T05:49:06.527Z,113.00
2022-09-28T05:50:06.513Z,94.00
2022-09-28T05:51:06.506Z,87.00
2022-09-28T05:52:06.497Z,89.00
2022-09-28T05:53:06.505Z,83.00
2022-09-28T05:54:06.574Z,83.00
2022-09-28T05:55:06.475Z,89.00
2022-09-28T05:56:06.479Z,95.00
2022-09-28T05:57:06.448Z,115.00
2022-09-28T05:58:06.432Z,137.00
2022-09-28T05:59:06.437Z,147.00
2022-09-28T06:00:06.420Z,150.00
2022-09-28T06:01:06.505Z,156.00
2022-09-28T06:02:06.432Z,166.00
2022-09-28T06:03:08.885Z,164.00
2022-09-28T06:04:06.390Z,127.00
2022-09-28T06:05:06.361Z,150.00
2022-09-28T06:06:06.346Z,172.00
2022-09-28T06:07:06.337Z,155.00
2022-09-28T06:08:06.325Z,163.00
2022-09-28T06:09:06.329Z,232.00
2022-09-28T06:10:06.304Z,329.00
2022-09-28T06:11:06.320Z,402.00
2022-09-28T06:12:06.281Z,495.00
2022-09-28T06:13:06.275Z,578.00
2022-09-28T06:14:06.283Z,576.00
2022-09-28T06:15:06.250Z,582.00
2022-09-28T06:16:06.238Z,584.00
2022-09-28T06:17:06.297Z,594.00
2022-09-28T06:18:06.217Z,591.00
2022-09-28T06:19:06.212Z,581.00
2022-09-28T06:20:06.218Z,558.00
2022-09-28T06:21:06.192Z,524.00
2022-09-28T06:22:06.186Z,511.00
2022-09-28T06:23:06.171Z,517.00
2022-09-28T06:24:06.166Z,622.00
2022-09-28T06:25:06.151Z,740.00
2022-09-28T06:26:06.167Z,694.00
2022-09-28T06:27:06.159Z,753.00
2022-09-28T06:28:06.112Z,807.00
2022-09-28T06:29:06.107Z,843.00
2022-09-28T06:30:06.090Z,868.00
2022-09-28T06:31:06.199Z,884.00
2022-09-28T06:32:06.084Z,819.00
2022-09-28T06:33:06.065Z,747.00
2022-09-28T06:34:06.053Z,713.00
2022-09-28T06:35:06.036Z,720.00
2022-09-28T06:36:06.030Z,785.00
2022-09-28T06:37:06.022Z,984.00
2022-09-28T06:38:06.053Z,1067.00
2022-09-28T06:39:05.999Z,946.00
2022-09-28T06:40:06.005Z,741.00
2022-09-28T06:41:05.984Z,781.00
2022-09-28T06:42:05.989Z,941.00
2022-09-28T06:43:05.950Z,941.00
2022-09-28T06:44:05.945Z,925.00
2022-09-28T06:45:06.062Z,737.00
2022-09-28T06:46:05.966Z,718.00
2022-09-28T06:47:05.910Z,752.00
2022-09-28T06:48:05.892Z,909.00
2022-09-28T06:49:05.894Z,827.00
2022-09-28T06:50:05.881Z,744.00
2022-09-28T06:51:05.868Z,704.00
2022-09-28T06:52:05.875Z,610.00
2022-09-28T06:53:05.871Z,692.00
2022-09-28T06:54:05.838Z,837.00
2022-09-28T06:55:05.821Z,907.00
2022-09-28T06:56:05.821Z,1063.00
2022-09-28T06:57:05.801Z,912.00
2022-09-28T06:58:05.792Z,889.00
2022-09-28T06:59:05.782Z,875.00
2022-09-28T07:00:05.766Z,813.00
2022-09-28T07:01:05.843Z,839.00
2022-09-28T07:02:05.783Z,916.00
2022-09-28T07:03:05.753Z,806.00
2022-09-28T07:04:05.722Z,836.00
2022-09-28T07:05:05.726Z,755.00
2022-09-28T07:06:05.721Z,815.00
2022-09-28T07:07:05.698Z,824.00
2022-09-28T07:08:05.678Z,713.00
2022-09-28T07:09:22.245Z,611.00
2022-09-28T07:10:05.677Z,648.00
2022-09-28T07:11:05.647Z,723.00
2022-09-28T07:12:05.634Z,561.00
2022-09-28T07:13:06.473Z,494.00
2022-09-28T07:14:05.614Z,486.00
2022-09-28T07:15:05.617Z,449.00
2022-09-28T07:16:05.594Z,313.00
2022-09-28T07:17:13.566Z,176.00
2022-09-28T07:18:05.623Z,510.00
2022-09-28T07:19:05.570Z,1181.00
2022-09-28T07:20:16.725Z,756.00
2022-09-28T07:21:05.578Z,514.00
2022-09-28T07:22:05.820Z,398.00
2022-09-28T07:23:17.056Z,267.00
2022-09-28T07:24:05.548Z,389.00
2022-09-28T07:25:05.508Z,823.00
2022-09-28T07:26:07.997Z,1168.00
2022-09-28T07:27:05.476Z,1344.00
2022-09-28T07:28:05.461Z,1227.00
2022-09-28T07:29:05.472Z,985.00
2022-09-28T07:30:05.456Z,921.00
2022-09-28T07:31:05.460Z,859.00
2022-09-28T07:32:05.422Z,813.00
2022-09-28T07:33:05.430Z,764.00
2022-09-28T07:34:05.396Z,635.00
2022-09-28T07:35:05.404Z,518.00
2022-09-28T07:36:05.376Z,504.00
2022-09-28T07:37:05.372Z,969.00
2022-09-28T07:38:05.369Z,1392.00
2022-09-28T07:39:05.347Z,1503.00
2022-09-28T07:40:05.350Z,1174.00
2022-09-28T07:41:05.380Z,978.00
2022-09-28T07:42:05.311Z,1043.00
2022-09-28T07:43:05.303Z,1254.00
2022-09-28T07:44:05.294Z,1547.00
2022-09-28T07:45:05.295Z,1629.00
2022-09-28T07:46:05.321Z,1489.00
2022-09-28T07:47:05.264Z,1226.00
2022-09-28T07:48:05.310Z,1121.00
2022-09-28T07:49:08.328Z,1082.00
2022-09-28T07:50:05.233Z,1043.00
2022-09-28T07:51:05.243Z,1099.00
2022-09-28T07:52:05.210Z,1205.00
2022-09-28T07:53:05.198Z,1207.00
2022-09-28T07:54:05.185Z,1201.00
2022-09-28T07:55:07.226Z,1424.00
2022-09-28T07:56:05.165Z,1590.00
2022-09-28T07:57:05.169Z,1799.00
2022-09-28T07:58:05.147Z,1465.00
2022-09-28T07:59:05.143Z,1005.00
2022-09-28T08:00:05.126Z,783.00
2022-09-28T08:01:05.153Z,873.00
2022-09-28T08:02:05.197Z,926.00
2022-09-28T08:03:05.100Z,839.00
2022-09-28T08:04:05.099Z,747.00
2022-09-28T08:05:05.079Z,1102.00
2022-09-28T08:06:05.053Z,1340.00
2022-09-28T08:07:05.056Z,1508.00
2022-09-28T08:08:05.037Z,1849.00
2022-09-28T08:09:05.054Z,2191.00
2022-09-28T08:10:05.012Z,2016.00
2022-09-28T08:11:05.045Z,1837.00
2022-09-28T08:12:05.004Z,1686.00
2022-09-28T08:13:06.545Z,1347.00
2022-09-28T08:14:04.993Z,1689.00
2022-09-28T08:15:04.993Z,1227.00
2022-09-28T08:16:05.120Z,1867.00
2022-09-28T08:17:04.940Z,2063.00
2022-09-28T08:18:04.933Z,2375.00
2022-09-28T08:19:04.937Z,4866.00
2022-09-28T08:20:04.949Z,2442.00
2022-09-28T08:21:04.894Z,2573.00
2022-09-28T08:22:04.894Z,2902.00
2022-09-28T08:23:04.897Z,2930.00
2022-09-28T08:24:04.880Z,2891.00
2022-09-28T08:25:04.874Z,3228.00
2022-09-28T08:26:04.851Z,2176.00
2022-09-28T08:27:04.843Z,1746.00
2022-09-28T08:28:04.835Z,1836.00
2022-09-28T08:29:04.826Z,1859.00
2022-09-28T08:30:04.802Z,1603.00
2022-09-28T08:31:04.827Z,1785.00
2022-09-28T08:32:04.811Z,1977.00
2022-09-28T08:33:04.767Z,2015.00
2022-09-28T08:34:04.814Z,1618.00
2022-09-28T08:35:04.757Z,1263.00
2022-09-28T08:36:04.742Z,1264.00
2022-09-28T08:37:04.727Z,1268.00
2022-09-28T08:38:04.713Z,1040.00
2022-09-28T08:39:04.711Z,1287.00
2022-09-28T08:40:04.706Z,1573.00
2022-09-28T08:41:04.804Z,1458.00
2022-09-28T08:42:04.667Z,1163.00
2022-09-28T08:43:04.673Z,1173.00
2022-09-28T08:44:04.650Z,1281.00
2022-09-28T08:45:04.703Z,1659.00
2022-09-28T08:46:04.699Z,2028.00
2022-09-28T08:47:04.621Z,2122.00
2022-09-28T08:48:04.627Z,1860.00
2022-09-28T08:49:24.277Z,1588.00
2022-09-28T08:50:04.591Z,1088.00
2022-09-28T08:51:04.613Z,2319.00
2022-09-28T08:52:04.562Z,2189.00
2022-09-28T08:53:04.574Z,2805.00
2022-09-28T08:54:06.897Z,1913.00
2022-09-28T08:55:04.544Z,2809.00
2022-09-28T08:56:04.534Z,1747.00
2022-09-28T08:57:04.510Z,3604.00
2022-09-28T08:58:04.525Z,2781.00
2022-09-28T08:59:04.489Z,2613.00
2022-09-28T09:00:08.178Z,2388.00
2022-09-28T09:01:04.542Z,1880.00
2022-09-28T09:02:04.604Z,839.00
2022-09-28T09:03:04.465Z,5026.00
2022-09-28T09:04:04.446Z,2334.00
2022-09-28T09:05:04.438Z,2364.00
2022-09-28T09:06:04.438Z,3531.00
2022-09-28T09:07:04.436Z,2561.00
2022-09-28T09:08:04.412Z,4116.00
2022-09-28T09:09:04.390Z,2279.00
2022-09-28T09:10:04.395Z,1850.00
2022-09-28T09:11:04.367Z,2505.00
2022-09-28T09:12:04.361Z,3337.00
2022-09-28T09:13:04.353Z,2297.00
2022-09-28T09:14:04.339Z,2169.00
2022-09-28T09:15:03.307Z,2065.00
2022-09-28T09:16:04.311Z,2430.00
2022-09-28T09:17:04.366Z,1126.00
2022-09-28T09:18:04.278Z,3024.00
2022-09-28T09:19:04.269Z,1859.00
2022-09-28T09:20:04.260Z,2561.00
2022-09-28T09:21:04.251Z,869.00
2022-09-28T09:22:04.299Z,3978.00
2022-09-28T09:23:04.230Z,3648.00
2022-09-28T09:24:04.213Z,4363.00
2022-09-28T09:25:04.217Z,4700.00
2022-09-28T09:26:04.194Z,6513.00
2022-09-28T09:27:04.186Z,2974.00
2022-09-28T09:28:04.170Z,5493.00
2022-09-28T09:29:04.183Z,1363.00
2022-09-28T09:30:04.170Z,1936.00
2022-09-28T09:31:04.194Z,4986.00
2022-09-28T09:32:04.135Z,2892.00
2022-09-28T09:33:04.132Z,6105.00
2022-09-28T09:34:04.110Z,1351.00
2022-09-28T09:35:04.107Z,4787.00
2022-09-28T09:36:04.106Z,5706.00
2022-09-28T09:37:04.078Z,8004.00
2022-09-28T09:38:04.075Z,6491.00
2022-09-28T09:39:04.066Z,2938.00
2022-09-28T09:40:04.053Z,3552.00
2022-09-28T09:41:04.167Z,2322.00
2022-09-28T09:42:04.030Z,1427.00
2022-09-28T09:43:04.010Z,1168.00
2022-09-28T09:44:04.004Z,1224.00
2022-09-28T09:45:04.026Z,1360.00
2022-09-28T09:46:04.037Z,1630.00
2022-09-28T09:47:03.972Z,1327.00
2022-09-28T09:48:03.965Z,1372.00
2022-09-28T09:49:03.977Z,1452.00
2022-09-28T09:50:06.933Z,1274.00
2022-09-28T09:51:03.930Z,1353.00
2022-09-28T09:52:03.918Z,1463.00
2022-09-28T09:53:03.902Z,1835.00
2022-09-28T09:54:03.900Z,2562.00
2022-09-28T09:55:03.901Z,1093.00
2022-09-28T09:56:03.869Z,4367.00
2022-09-28T09:57:03.851Z,4801.00
2022-09-28T09:58:03.862Z,5284.00
2022-09-28T09:59:03.842Z,7559.00
2022-09-28T10:00:03.870Z,3437.00
2022-09-28T10:01:03.872Z,4791.00
2022-09-28T10:02:03.851Z,1718.00
2022-09-28T10:03:03.806Z,3963.00
2022-09-28T10:04:03.782Z,1009.00
2022-09-28T10:05:03.765Z,811.00
2022-09-28T10:06:03.764Z,1514.00
2022-09-28T10:07:03.757Z,3200.00
2022-09-28T10:08:03.762Z,3561.00
2022-09-28T10:09:03.727Z,2991.00
2022-09-28T10:10:03.723Z,1615.00
2022-09-28T10:11:03.702Z,1491.00
2022-09-28T10:12:03.715Z,1149.00
2022-09-28T10:13:03.680Z,990.00
2022-09-28T10:14:03.686Z,777.00
2022-09-28T10:15:03.664Z,656.00
2022-09-28T10:16:03.652Z,707.00
2022-09-28T10:17:03.825Z,812.00
2022-09-28T10:18:03.638Z,1059.00
2022-09-28T10:19:03.621Z,1310.00
2022-09-28T10:20:03.621Z,1374.00
2022-09-28T10:21:03.615Z,2015.00
2022-09-28T10:22:03.598Z,2340.00
2022-09-28T10:23:03.604Z,2563.00
2022-09-28T10:24:03.559Z,2348.00
2022-09-28T10:25:03.549Z,2399.00
2022-09-28T10:26:03.568Z,2405.00
2022-09-28T10:27:03.527Z,2415.00
2022-09-28T10:28:03.521Z,2617.00
2022-09-28T10:29:03.534Z,2557.00
2022-09-28T10:30:03.500Z,2754.00
2022-09-28T10:31:03.577Z,2697.00
2022-09-28T10:32:03.474Z,1558.00
2022-09-28T10:33:03.471Z,5909.00
2022-09-28T10:34:03.453Z,1789.00
2022-09-28T10:35:03.467Z,7022.00
2022-09-28T10:36:03.441Z,3603.00
2022-09-28T10:37:03.415Z,8014.00
2022-09-28T10:38:03.425Z,4037.00
2022-09-28T10:39:03.394Z,3276.00
2022-09-28T10:40:03.385Z,1696.00
2022-09-28T10:41:03.484Z,5220.00
2022-09-28T10:42:03.366Z,7602.00
2022-09-28T10:43:03.353Z,4067.00
2022-09-28T10:44:03.360Z,3733.00
2022-09-28T10:45:03.355Z,3178.00
2022-09-28T10:46:03.402Z,3870.00
2022-09-28T10:47:03.322Z,1529.00
2022-09-28T10:48:03.296Z,4591.00
2022-09-28T10:49:03.284Z,2873.00
2022-09-28T10:50:03.290Z,2888.00
2022-09-28T10:51:03.264Z,3086.00
2022-09-28T10:52:03.260Z,1091.00
2022-09-28T10:53:03.240Z,2442.00
2022-09-28T10:54:03.232Z,4327.00
2022-09-28T10:55:03.242Z,4299.00
2022-09-28T10:56:03.237Z,4544.00
2022-09-28T10:57:03.201Z,4819.00
2022-09-28T10:58:03.200Z,4802.00
2022-09-28T10:59:03.183Z,5036.00
2022-09-28T11:00:03.177Z,5852.00
2022-09-28T11:01:03.229Z,6133.00
2022-09-28T11:02:03.243Z,5631.00
2022-09-28T11:03:03.131Z,5015.00
2022-09-28T11:04:03.128Z,5387.00
2022-09-28T11:05:03.125Z,5260.00
2022-09-28T11:06:03.105Z,5411.00
2022-09-28T11:07:03.093Z,4821.00
2022-09-28T11:08:03.080Z,5934.00
2022-09-28T11:09:03.077Z,2987.00
2022-09-28T11:10:03.084Z,2548.00
2022-09-28T11:11:03.047Z,2423.00
2022-09-28T11:12:03.041Z,2428.00
2022-09-28T11:13:03.028Z,1357.00
2022-09-28T11:14:03.015Z,1347.00
2022-09-28T11:15:03.031Z,2792.00
2022-09-28T11:16:03.007Z,5977.00
2022-09-28T11:17:03.016Z,4316.00
2022-09-28T11:18:02.970Z,5881.00
2022-09-28T11:19:02.993Z,3285.00
2022-09-28T11:20:02.949Z,3670.00
2022-09-28T11:21:02.943Z,3630.00
2022-09-28T11:22:02.928Z,1712.00
2022-09-28T11:23:02.920Z,6976.00
2022-09-28T11:24:02.913Z,8241.00
2022-09-28T11:25:02.899Z,5555.00
2022-09-28T11:26:02.919Z,6046.00
2022-09-28T11:27:02.884Z,6500.00
2022-09-28T11:28:02.859Z,6293.00
2022-09-28T11:29:02.845Z,5132.00
2022-09-28T11:30:02.838Z,5440.00
2022-09-28T11:31:02.907Z,3045.00
2022-09-28T11:32:02.812Z,5699.00
2022-09-28T11:33:02.801Z,14500.00
2022-09-28T11:34:02.800Z,17903.00
2022-09-28T11:35:02.778Z,15794.00
2022-09-28T11:36:02.771Z,13104.00
2022-09-28T11:37:02.809Z,18141.00
2022-09-28T11:38:02.754Z,16846.00
2022-09-28T11:39:02.765Z,22736.00
2022-09-28T11:40:02.731Z,25874.00
2022-09-28T11:41:02.768Z,19054.00
2022-09-28T11:42:02.730Z,11625.00
2022-09-28T11:43:02.729Z,2191.00
2022-09-28T11:44:02.687Z,10582.00
2022-09-28T11:45:02.678Z,4757.00
2022-09-28T11:46:02.770Z,4040.00
2022-09-28T11:47:02.669Z,5310.00
2022-09-28T11:48:02.641Z,2435.00
2022-09-28T11:49:02.643Z,5221.00
2022-09-28T11:50:02.622Z,13358.00
2022-09-28T11:51:02.618Z,25052.00
2022-09-28T11:52:02.617Z,19837.00
2022-09-28T11:53:02.597Z,7399.00
2022-09-28T11:54:02.608Z,14660.00
2022-09-28T11:55:02.560Z,7397.00
2022-09-28T11:56:07.938Z,20769.00
2022-09-28T11:57:02.598Z,21288.00
2022-09-28T11:58:02.545Z,19509.00
2022-09-28T11:59:02.538Z,21601.00
2022-09-28T12:00:02.513Z,19727.00
2022-09-28T12:01:02.503Z,17409.00
2022-09-28T12:02:02.580Z,16462.00
2022-09-28T12:03:02.634Z,23073.00
2022-09-28T12:04:02.494Z,29344.00
2022-09-28T12:05:02.467Z,28275.00
2022-09-28T12:06:02.448Z,12959.00
2022-09-28T12:07:02.433Z,8632.00
2022-09-28T12:08:02.433Z,13500.00
2022-09-28T12:09:02.450Z,8949.00
2022-09-28T12:10:02.425Z,2640.00
2022-09-28T12:11:02.389Z,12119.00
2022-09-28T12:12:02.390Z,4909.00
2022-09-28T12:13:02.369Z,3376.00
2022-09-28T12:14:02.398Z,8282.00
2022-09-28T12:15:02.350Z,4420.00
2022-09-28T12:16:45.159Z,3925.00
2022-09-28T12:17:07.946Z,3111.00
2022-09-28T12:18:02.417Z,6337.00
2022-09-28T12:19:02.316Z,4098.00
2022-09-28T12:20:02.305Z,4989.00
2022-09-28T12:21:05.099Z,4522.00
2022-09-28T12:22:02.304Z,3117.00
2022-09-28T12:23:02.263Z,2826.00
2022-09-28T12:24:02.252Z,2602.00
2022-09-28T12:25:02.307Z,1573.00
2022-09-28T12:26:02.235Z,8988.00
2022-09-28T12:27:02.215Z,4291.00
2022-09-28T12:28:02.233Z,2128.00
2022-09-28T12:29:02.195Z,11273.00
2022-09-28T12:30:02.241Z,4474.00
2022-09-28T12:31:02.240Z,11798.00
2022-09-28T12:32:02.180Z,8617.00
2022-09-28T12:33:02.177Z,2085.00
2022-09-28T12:34:02.139Z,7530.00
2022-09-28T12:35:02.130Z,4892.00
2022-09-28T12:36:02.120Z,10437.00
2022-09-28T12:37:02.111Z,8726.00
2022-09-28T12:38:02.153Z,6694.00
2022-09-28T12:39:18.129Z,12005.00
2022-09-28T12:40:02.337Z,20679.00
2022-09-28T12:41:02.149Z,4717.00
2022-09-28T12:42:02.053Z,10421.00
2022-09-28T12:43:02.039Z,4236.00
2022-09-28T12:44:02.055Z,28978.00
2022-09-28T12:45:02.017Z,26734.00
2022-09-28T12:46:17.217Z,20416.00
2022-09-28T12:47:02.090Z,24254.00
2022-09-28T12:48:01.987Z,10419.00
2022-09-28T12:49:51.539Z,5447.00
2022-09-28T12:51:01.414Z,3890.00
2022-09-28T12:52:01.947Z,5904.00
2022-09-28T12:53:03.140Z,3377.00
2022-09-28T12:54:01.921Z,19848.00
2022-09-28T12:55:02.055Z,14261.00
2022-09-28T12:56:01.907Z,17228.00
2022-09-28T12:57:01.907Z,16481.00
2022-09-28T12:58:01.877Z,10521.00
2022-09-28T12:59:01.870Z,9922.00
2022-09-28T13:00:02.099Z,4779.00
2022-09-28T13:01:01.851Z,13349.00
2022-09-28T13:02:01.848Z,8900.00
2022-09-28T13:03:01.877Z,2167.00
2022-09-28T13:04:01.835Z,12339.00
2022-09-28T13:05:01.852Z,6552.00
2022-09-28T13:06:01.815Z,5443.00
2022-09-28T13:07:01.872Z,5692.00
2022-09-28T13:08:01.774Z,3475.00
2022-09-28T13:09:01.805Z,5846.00
2022-09-28T13:10:01.894Z,4508.00
2022-09-28T13:11:05.553Z,3299.00
2022-09-28T13:12:01.745Z,3266.00
2022-09-28T13:13:01.750Z,3241.00
2022-09-28T13:14:01.707Z,4896.00
2022-09-28T13:15:01.691Z,2055.00
2022-09-28T13:16:01.761Z,5758.00
2022-09-28T13:17:01.681Z,4545.00
2022-09-28T13:18:01.685Z,10446.00
2022-09-28T13:19:01.657Z,8918.00
2022-09-28T13:20:01.642Z,37247.00
2022-09-28T13:21:01.627Z,20310.00
2022-09-28T13:22:01.653Z,76012.00
2022-09-28T13:23:01.604Z,74626.00
2022-09-28T13:24:20.682Z,35320.00
2022-09-28T13:25:01.593Z,24948.00
2022-09-28T13:26:01.574Z,14558.00
2022-09-28T13:27:01.562Z,6429.00
2022-09-28T13:28:01.558Z,10096.00
2022-09-28T13:29:01.545Z,13689.00
2022-09-28T13:30:01.556Z,4772.00
2022-09-28T13:31:01.613Z,4051.00
2022-09-28T13:32:01.507Z,6166.00
2022-09-28T13:33:01.527Z,9049.00
2022-09-28T13:34:01.512Z,80311.00
2022-09-28T13:35:01.469Z,81964.00
2022-09-28T13:36:01.464Z,83677.00
2022-09-28T13:37:01.451Z,78616.00
2022-09-28T13:38:01.443Z,70540.00
2022-09-28T13:39:01.454Z,26080.00
2022-09-28T13:40:01.453Z,7324.00
2022-09-28T13:41:01.460Z,7541.00
2022-09-28T13:42:01.400Z,13603.00
2022-09-28T13:43:01.403Z,32546.00
2022-09-28T13:44:01.385Z,12248.00
2022-09-28T13:45:01.423Z,74948.00
2022-09-28T13:46:01.455Z,75642.00
2022-09-28T13:47:01.430Z,58533.00
2022-09-28T13:48:01.356Z,6214.00
2022-09-28T13:49:01.329Z,6877.00
2022-09-28T13:50:01.314Z,2259.00
2022-09-28T13:51:01.336Z,12657.00
2022-09-28T13:52:01.293Z,3420.00
2022-09-28T13:53:01.281Z,18596.00
2022-09-28T13:54:01.282Z,2438.00
2022-09-28T13:55:01.261Z,17165.00
2022-09-28T13:56:01.252Z,6596.00
2022-09-28T13:57:01.239Z,2819.00
2022-09-28T13:58:01.246Z,19074.00
2022-09-28T13:59:01.241Z,79423.00
2022-09-28T14:00:01.249Z,74750.00
2022-09-28T14:01:01.199Z,82991.00
2022-09-28T14:02:06.361Z,79268.00
2022-09-28T14:03:01.227Z,60388.00
2022-09-28T14:04:01.161Z,3764.00
2022-09-28T14:05:01.156Z,14608.00
2022-09-28T14:06:01.143Z,2451.00
2022-09-28T14:07:01.138Z,14397.00
2022-09-28T14:08:01.144Z,3810.00
2022-09-28T14:09:01.124Z,19713.00
2022-09-28T14:10:01.099Z,20132.00
2022-09-28T14:11:01.108Z,12937.00
2022-09-28T14:12:01.110Z,7597.00
2022-09-28T14:13:04.119Z,11447.00
2022-09-28T14:14:01.092Z,4898.00
2022-09-28T14:15:01.064Z,5667.00
2022-09-28T14:16:01.184Z,4543.00
2022-09-28T14:17:01.029Z,7874.00
2022-09-28T14:18:01.023Z,29073.00
2022-09-28T14:19:01.003Z,13301.00
2022-09-28T14:20:00.995Z,31244.00
2022-09-28T14:21:00.980Z,26296.00
2022-09-28T14:22:00.997Z,18602.00
2022-09-28T14:23:00.978Z,8088.00
2022-09-28T14:24:00.955Z,28428.00
2022-09-28T14:25:00.937Z,29701.00
2022-09-28T14:26:00.964Z,25488.00
2022-09-28T14:27:00.919Z,31284.00
2022-09-28T14:28:00.973Z,27664.00
2022-09-28T14:29:00.924Z,4506.00
2022-09-28T14:30:00.889Z,23101.00
2022-09-28T14:31:00.907Z,5742.00
2022-09-28T14:32:00.864Z,6082.00
2022-09-28T14:33:00.876Z,6191.00
2022-09-28T14:34:00.866Z,4253.00
2022-09-28T14:35:00.837Z,3822.00
2022-09-28T14:36:00.820Z,2833.00
2022-09-28T14:37:00.819Z,2521.00
2022-09-28T14:38:00.800Z,2542.00
2022-09-28T14:39:00.795Z,3015.00
2022-09-28T14:40:00.804Z,2654.00
2022-09-28T14:41:00.836Z,2744.00
2022-09-28T14:42:00.772Z,2816.00
2022-09-28T14:43:00.748Z,1914.00
2022-09-28T14:44:00.740Z,3568.00
2022-09-28T14:45:05.298Z,4095.00
2022-09-28T14:46:00.804Z,4723.00
2022-09-28T14:47:00.702Z,3482.00
2022-09-28T14:48:00.689Z,2692.00
2022-09-28T14:49:00.698Z,2649.00
2022-09-28T14:50:00.667Z,2006.00
2022-09-28T14:51:00.663Z,1932.00
2022-09-28T14:52:00.646Z,1847.00
2022-09-28T14:53:00.660Z,75850.00
2022-09-28T14:54:00.634Z,80099.00
2022-09-28T14:55:00.632Z,74260.00
2022-09-28T14:56:00.657Z,76683.00
2022-09-28T14:57:00.596Z,74643.00
2022-09-28T14:58:00.608Z,75903.00
2022-09-28T14:59:00.573Z,73386.00
2022-09-28T15:00:00.559Z,27708.00
2022-09-28T15:01:00.551Z,31683.00
2022-09-28T15:02:00.576Z,20275.00
2022-09-28T15:03:00.528Z,11935.00
2022-09-28T15:04:00.580Z,5947.00
2022-09-28T15:05:00.641Z,4413.00
2022-09-28T15:06:00.496Z,4578.00
2022-09-28T15:07:00.502Z,5071.00
2022-09-28T15:08:00.497Z,6294.00
2022-09-28T15:09:00.475Z,1499.00
2022-09-28T15:10:00.463Z,3858.00
2022-09-28T15:11:00.458Z,4827.00
2022-09-28T15:12:00.442Z,4516.00
2022-09-28T15:13:00.435Z,4170.00
2022-09-28T15:14:00.412Z,4059.00
2022-09-28T15:15:00.406Z,4111.00
2022-09-28T15:16:00.413Z,4421.00
2022-09-28T15:17:00.401Z,4576.00
2022-09-28T15:18:00.363Z,4427.00
2022-09-28T15:19:00.356Z,2814.00
2022-09-28T15:20:00.367Z,4626.00
2022-09-28T15:21:00.354Z,2697.00
2022-09-28T15:22:00.321Z,4450.00
2022-09-28T15:23:00.338Z,1746.00
2022-09-28T15:24:00.310Z,5547.00
2022-09-28T15:25:02.697Z,2769.00
2022-09-28T15:26:00.276Z,3947.00
2022-09-28T15:27:00.271Z,5033.00
2022-09-28T15:28:00.267Z,3826.00
2022-09-28T15:29:00.270Z,3272.00
2022-09-28T15:30:00.234Z,3064.00
2022-09-28T15:31:00.323Z,2702.00
2022-09-28T15:32:00.257Z,2419.00
2022-09-28T15:33:00.206Z,2223.00
2022-09-28T15:34:00.215Z,2378.00
2022-09-28T15:35:00.200Z,2369.00
2022-09-28T15:36:00.205Z,2007.00
2022-09-28T15:37:00.179Z,1973.00
2022-09-28T15:38:00.145Z,2079.00
2022-09-28T15:39:00.136Z,1486.00
2022-09-28T15:40:00.142Z,1577.00
2022-09-28T15:41:00.178Z,1232.00
2022-09-28T15:42:00.117Z,1494.00
2022-09-28T15:43:00.102Z,1866.00
2022-09-28T15:44:00.093Z,1977.00
2022-09-28T15:45:00.076Z,2044.00
2022-09-28T15:46:00.126Z,1889.00
2022-09-28T15:47:00.053Z,2585.00
2022-09-28T15:48:00.053Z,1953.00
2022-09-28T15:49:00.033Z,1757.00
2022-09-28T15:50:00.029Z,1902.00
2022-09-28T15:51:00.021Z,1641.00
2022-09-28T15:52:00.032Z,1424.00
2022-09-28T15:52:59.985Z,1625.00
2022-09-28T15:53:59.972Z,1794.00
2022-09-28T15:54:59.998Z,1845.00
2022-09-28T15:55:59.951Z,1771.00
2022-09-28T15:56:59.992Z,2053.00
2022-09-28T15:57:59.994Z,1646.00
2022-09-28T15:58:59.920Z,1674.00
2022-09-28T15:59:59.918Z,1574.00
2022-09-28T16:00:59.909Z,1617.00
2022-09-28T16:01:59.919Z,1674.00
2022-09-28T16:02:59.927Z,1871.00
2022-09-28T16:03:59.866Z,2119.00
2022-09-28T16:04:59.871Z,1690.00
2022-09-28T16:05:59.856Z,1505.00
2022-09-28T16:06:59.848Z,1449.00
2022-09-28T16:07:59.828Z,1416.00
2022-09-28T16:08:59.809Z,1345.00
2022-09-28T16:09:59.796Z,1392.00
2022-09-28T16:10:59.787Z,1343.00
2022-09-28T16:11:59.779Z,1292.00
2022-09-28T16:12:59.790Z,1208.00
2022-09-28T16:13:59.753Z,995.00
2022-09-28T16:14:59.747Z,986.00
2022-09-28T16:16:00.046Z,1130.00
2022-09-28T16:17:00.725Z,1094.00
2022-09-28T16:17:59.709Z,1069.00
2022-09-28T16:18:59.706Z,1033.00
2022-09-28T16:19:59.701Z,1025.00
2022-09-28T16:20:59.715Z,1000.00
2022-09-28T16:21:59.672Z,989.00
2022-09-28T16:22:59.663Z,1047.00
2022-09-28T16:23:59.668Z,931.00
2022-09-28T16:24:59.629Z,844.00
2022-09-28T16:25:59.771Z,785.00
2022-09-28T16:26:59.679Z,745.00
2022-09-28T16:27:59.617Z,672.00
2022-09-28T16:28:59.605Z,613.00
2022-09-28T16:29:59.602Z,538.00
2022-09-28T16:30:59.644Z,479.00
2022-09-28T16:31:59.588Z,427.00
2022-09-28T16:32:58.569Z,398.00
2022-09-28T16:33:59.569Z,375.00
2022-09-28T16:34:59.581Z,321.00
2022-09-28T16:35:59.539Z,265.00
2022-09-28T16:36:59.528Z,222.00
2022-09-28T16:37:59.527Z,202.00
2022-09-28T16:38:59.504Z,216.00
2022-09-28T16:39:59.516Z,221.00
2022-09-28T16:40:59.540Z,193.00
2022-09-28T16:41:59.466Z,159.00
2022-09-28T16:42:59.491Z,167.00
2022-09-28T16:43:59.463Z,186.00
2022-09-28T16:44:59.541Z,174.00
2022-09-28T16:45:59.548Z,152.00
2022-09-28T16:46:59.503Z,148.00
2022-09-28T16:47:59.455Z,137.00
2022-09-28T16:48:59.417Z,133.00
2022-09-28T16:49:59.405Z,119.00
2022-09-28T16:50:59.395Z,110.00
2022-09-28T16:51:59.369Z,105.00
2022-09-28T16:53:00.217Z,107.00
2022-09-28T16:53:59.336Z,105.00
2022-09-28T16:54:59.337Z,99.00
2022-09-28T16:55:59.367Z,91.00
2022-09-28T16:56:59.365Z,90.00
2022-09-28T16:57:59.329Z,80.00
2022-09-28T16:58:59.301Z,76.00
2022-09-28T16:59:59.323Z,83.00
2022-09-28T17:00:59.276Z,75.00
2022-09-28T17:01:59.457Z,73.00
2022-09-28T17:02:59.376Z,71.00
2022-09-28T17:03:59.288Z,58.00
2022-09-28T17:04:59.236Z,50.00
2022-09-28T17:05:59.299Z,39.00
2022-09-28T17:06:59.309Z,31.00
2022-09-28T17:07:59.256Z,31.00
2022-09-28T17:08:59.218Z,25.00
2022-09-28T17:09:59.391Z,18.00
2022-09-28T17:11:18.163Z,11.00
2022-09-28T17:11:59.290Z,8.00
2022-09-28T17:12:59.148Z,6.00
2022-09-28T17:13:59.205Z,8.00
2022-09-28T17:14:59.093Z,9.00
2022-09-28T17:15:59.099Z,9.00
2022-09-28T17:17:08.209Z,14.00
2022-09-28T17:17:59.066Z,11.00
2022-09-28T17:18:59.062Z,10.00
2022-09-28T17:19:59.128Z,7.00
2022-09-28T17:20:59.034Z,6.00
2022-09-28T17:21:59.013Z,6.00
2022-09-28T17:22:59.006Z,6.00
2022-09-28T17:23:59.030Z,5.00
2022-09-28T17:24:59.021Z,2.00
2022-09-28T17:25:59.007Z,1.00
2022-09-28T17:26:58.978Z,2.00
2022-09-28T17:27:58.949Z,2.00
2022-09-28T17:28:58.940Z,1.00
2022-09-28T17:29:58.954Z,1.00
2022-09-28T17:30:58.998Z,1.00
2022-09-28T17:31:58.907Z,1.00
2022-09-28T17:32:58.956Z,0.00
2022-09-28T17:33:58.953Z,0.00
2022-09-28T17:35:22.635Z,0.00
2022-09-28T17:35:58.953Z,0.00
2022-09-28T17:36:58.939Z,0.00
2022-09-28T17:37:58.942Z,0.00
2022-09-28T17:38:58.913Z,0.00
2022-09-28T17:39:58.953Z,0.00
2022-09-28T17:40:58.926Z,0.00
2022-09-28T17:41:58.875Z,0.00
2022-09-28T17:42:58.846Z,0.00
2022-09-28T17:43:58.843Z,0.00
2022-09-28T17:44:58.822Z,0.00